createdAt,value
2018-01-15T00:00:55.464Z,983.84
2018-01-15T00:01:55.378Z,983.84
2018-01-15T00:02:55.292Z,983.80
2018-01-15T00:03:55.206Z,983.82
2018-01-15T00:04:55.121Z,983.80
2018-01-15T00:05:55.040Z,983.82
2018-01-15T00:06:54.951Z,983.81
2018-01-15T00:07:54.864Z,983.85
2018-01-15T00:08:54.779Z,983.82
2018-01-15T00:09:54.693Z,983.81
2018-01-15T00:10:54.609Z,983.85
2018-01-15T00:11:54.522Z,983.81
2018-01-15T00:12:54.436Z,983.85
2018-01-15T00:13:54.352Z,983.85
2018-01-15T00:14:54.267Z,983.84
2018-01-15T00:15:54.179Z,983.86
2018-01-15T00:16:54.097Z,983.82
2018-01-15T00:17:54.011Z,983.81
2018-01-15T00:18:53.925Z,983.85
2018-01-15T00:19:53.838Z,983.81
2018-01-15T00:20:53.760Z,983.81
2018-01-15T00:21:53.666Z,983.82
2018-01-15T00:22:53.582Z,983.80
2018-01-15T00:23:53.496Z,983.81
2018-01-15T00:24:53.412Z,983.80
2018-01-15T00:25:53.325Z,983.80
2018-01-15T00:26:53.250Z,983.82
2018-01-15T00:27:53.156Z,983.77
2018-01-15T00:28:53.070Z,983.76
2018-01-15T00:29:52.982Z,983.72
2018-01-15T00:30:52.899Z,983.69
2018-01-15T00:31:52.810Z,983.72
2018-01-15T00:32:52.726Z,983.70
2018-01-15T00:33:52.641Z,983.66
2018-01-15T00:34:52.554Z,983.69
2018-01-15T00:35:52.468Z,983.68
2018-01-15T00:36:52.387Z,983.66
2018-01-15T00:37:52.298Z,983.65
2018-01-15T00:38:52.213Z,983.68
2018-01-15T00:39:52.127Z,983.67
2018-01-15T00:40:52.043Z,983.67
2018-01-15T00:41:51.956Z,983.62
2018-01-15T00:42:51.870Z,983.64
2018-01-15T00:43:51.783Z,983.62
2018-01-15T00:44:51.700Z,983.67
2018-01-15T00:45:51.615Z,983.63
2018-01-15T00:46:51.528Z,983.67
2018-01-15T00:47:51.446Z,983.66
2018-01-15T00:48:51.359Z,983.68
2018-01-15T00:49:51.270Z,983.65
2018-01-15T00:50:51.187Z,983.65
2018-01-15T00:51:51.097Z,983.65
2018-01-15T00:52:51.014Z,983.62
2018-01-15T00:53:50.927Z,983.62
2018-01-15T00:54:50.844Z,983.63
2018-01-15T00:55:50.756Z,983.58
2018-01-15T00:56:50.672Z,983.61
2018-01-15T00:57:50.587Z,983.60
2018-01-15T00:58:50.501Z,983.63
2018-01-15T00:59:50.416Z,983.58
2018-01-15T01:00:50.329Z,983.59
2018-01-15T01:01:50.246Z,983.61
2018-01-15T01:02:50.159Z,983.57
2018-01-15T01:03:50.070Z,983.58
2018-01-15T01:04:49.990Z,983.56
2018-01-15T01:05:49.922Z,983.60
2018-01-15T01:06:49.816Z,983.54
2018-01-15T01:07:49.731Z,983.64
2018-01-15T01:08:49.647Z,983.62
2018-01-15T01:09:49.561Z,983.63
2018-01-15T01:10:49.476Z,983.65
2018-01-15T01:11:49.389Z,983.64
2018-01-15T01:12:49.301Z,983.65
2018-01-15T01:13:49.219Z,983.66
2018-01-15T01:14:49.137Z,983.64
2018-01-15T01:15:49.046Z,983.67
2018-01-15T01:16:48.960Z,983.62
2018-01-15T01:17:48.882Z,983.69
2018-01-15T01:18:48.799Z,983.64
2018-01-15T01:19:48.711Z,983.66
2018-01-15T01:20:48.617Z,983.67
2018-01-15T01:21:48.535Z,983.65
2018-01-15T01:22:48.447Z,983.65
2018-01-15T01:23:48.361Z,983.62
2018-01-15T01:24:48.277Z,983.60
2018-01-15T01:25:48.192Z,983.63
2018-01-15T01:26:48.106Z,983.64
2018-01-15T01:27:48.029Z,983.65
2018-01-15T01:28:47.934Z,983.70
2018-01-15T01:29:47.848Z,983.70
2018-01-15T01:30:47.769Z,983.70
2018-01-15T01:31:47.677Z,983.69
2018-01-15T01:32:47.592Z,983.68
2018-01-15T01:33:47.508Z,983.67
2018-01-15T01:34:47.422Z,983.63
2018-01-15T01:35:47.338Z,983.64
2018-01-15T01:36:47.250Z,983.66
2018-01-15T01:37:47.165Z,983.61
2018-01-15T01:38:47.080Z,983.62
2018-01-15T01:39:46.994Z,983.63
2018-01-15T01:40:46.910Z,983.63
2018-01-15T01:41:46.823Z,983.59
2018-01-15T01:42:46.738Z,983.60
2018-01-15T01:43:46.653Z,983.57
2018-01-15T01:44:46.565Z,983.56
2018-01-15T01:45:46.482Z,983.51
2018-01-15T01:46:46.398Z,983.57
2018-01-15T01:47:46.309Z,983.52
2018-01-15T01:48:46.230Z,983.48
2018-01-15T01:49:46.141Z,983.45
2018-01-15T01:50:46.054Z,983.45
2018-01-15T01:51:45.967Z,983.44
2018-01-15T01:52:45.883Z,983.41
2018-01-15T01:53:45.797Z,983.42
2018-01-15T01:54:45.711Z,983.42
2018-01-15T01:55:45.625Z,983.41
2018-01-15T01:56:45.542Z,983.44
2018-01-15T01:57:45.455Z,983.43
2018-01-15T01:58:45.373Z,983.47
2018-01-15T01:59:45.284Z,983.44
2018-01-15T02:00:45.198Z,983.44
2018-01-15T02:01:45.113Z,983.46
2018-01-15T02:02:45.026Z,983.44
2018-01-15T02:03:44.941Z,983.42
2018-01-15T02:04:44.858Z,983.43
2018-01-15T02:05:44.772Z,983.44
2018-01-15T02:06:44.686Z,983.44
2018-01-15T02:07:44.599Z,983.42
2018-01-15T02:08:44.513Z,983.45
2018-01-15T02:09:44.431Z,983.46
2018-01-15T02:10:44.341Z,983.45
2018-01-15T02:11:44.256Z,983.44
2018-01-15T02:12:44.169Z,983.49
2018-01-15T02:13:44.085Z,983.47
2018-01-15T02:14:44.001Z,983.49
2018-01-15T02:15:43.918Z,983.47
2018-01-15T02:16:43.829Z,983.45
2018-01-15T02:17:43.749Z,983.49
2018-01-15T02:18:43.672Z,983.47
2018-01-15T02:19:43.570Z,983.47
2018-01-15T02:20:43.487Z,983.44
2018-01-15T02:21:43.400Z,983.39
2018-01-15T02:22:43.315Z,983.41
2018-01-15T02:23:43.230Z,983.36
2018-01-15T02:24:43.140Z,983.40
2018-01-15T02:25:43.058Z,983.37
2018-01-15T02:26:42.970Z,983.39
2018-01-15T02:27:42.885Z,983.37
2018-01-15T02:28:42.800Z,983.45
2018-01-15T02:29:42.713Z,983.44
2018-01-15T02:30:42.626Z,983.44
2018-01-15T02:31:42.554Z,983.43
2018-01-15T02:32:42.454Z,983.41
2018-01-15T02:33:42.372Z,983.42
2018-01-15T02:34:42.282Z,983.43
2018-01-15T02:35:42.220Z,983.38
2018-01-15T02:36:42.113Z,983.43
2018-01-15T02:37:42.024Z,983.43
2018-01-15T02:38:41.941Z,983.42
2018-01-15T02:39:41.855Z,983.37
2018-01-15T02:40:41.767Z,983.37
2018-01-15T02:41:41.683Z,983.39
2018-01-15T02:42:41.596Z,983.37
2018-01-15T02:43:41.510Z,983.35
2018-01-15T02:44:41.429Z,983.39
2018-01-15T02:45:41.340Z,983.34
2018-01-15T02:46:41.254Z,983.36
2018-01-15T02:47:41.165Z,983.40
2018-01-15T02:48:41.094Z,983.38
2018-01-15T02:49:40.997Z,983.34
2018-01-15T02:50:40.908Z,983.38
2018-01-15T02:51:40.822Z,983.38
2018-01-15T02:52:40.740Z,983.29
2018-01-15T02:53:40.650Z,983.31
2018-01-15T02:54:40.569Z,983.29
2018-01-15T02:55:40.478Z,983.31
2018-01-15T02:56:40.391Z,983.31
2018-01-15T02:57:40.306Z,983.32
2018-01-15T02:58:40.219Z,983.29
2018-01-15T02:59:40.132Z,983.31
2018-01-15T03:00:40.048Z,983.28
2018-01-15T03:01:39.961Z,983.28
2018-01-15T03:02:39.877Z,983.28
2018-01-15T03:03:39.789Z,983.31
2018-01-15T03:04:39.703Z,983.29
2018-01-15T03:05:39.622Z,983.29
2018-01-15T03:06:39.531Z,983.31
2018-01-15T03:07:39.446Z,983.25
2018-01-15T03:08:39.361Z,983.25
2018-01-15T03:09:39.274Z,983.23
2018-01-15T03:10:39.189Z,983.23
2018-01-15T03:11:39.101Z,983.22
2018-01-15T03:12:39.019Z,983.24
2018-01-15T03:13:38.929Z,983.17
2018-01-15T03:14:38.851Z,983.17
2018-01-15T03:15:38.761Z,983.17
2018-01-15T03:16:38.672Z,983.16
2018-01-15T03:17:38.587Z,983.14
2018-01-15T03:18:38.501Z,983.13
2018-01-15T03:19:38.413Z,983.16
2018-01-15T03:20:38.330Z,983.12
2018-01-15T03:21:38.243Z,983.08
2018-01-15T03:22:38.157Z,983.09
2018-01-15T03:23:38.069Z,983.05
2018-01-15T03:24:37.984Z,983.08
2018-01-15T03:25:37.899Z,983.13
2018-01-15T03:26:37.846Z,983.12
2018-01-15T03:27:37.727Z,983.15
2018-01-15T03:28:37.641Z,983.07
2018-01-15T03:29:37.552Z,983.10
2018-01-15T03:30:37.468Z,983.08
2018-01-15T03:31:37.383Z,983.09
2018-01-15T03:32:37.306Z,983.10
2018-01-15T03:33:37.214Z,983.06
2018-01-15T03:34:37.124Z,983.05
2018-01-15T03:35:37.036Z,983.04
2018-01-15T03:36:36.951Z,983.01
2018-01-15T03:37:36.864Z,983.06
2018-01-15T03:38:36.777Z,983.00
2018-01-15T03:39:36.693Z,983.03
2018-01-15T03:40:36.604Z,982.99
2018-01-15T03:41:36.519Z,983.00
2018-01-15T03:42:36.434Z,983.01
2018-01-15T03:43:36.345Z,983.05
2018-01-15T03:44:36.262Z,983.06
2018-01-15T03:45:36.178Z,983.08
2018-01-15T03:46:36.087Z,983.04
2018-01-15T03:47:35.998Z,983.02
2018-01-15T03:48:35.917Z,982.97
2018-01-15T03:49:35.830Z,982.99
2018-01-15T03:50:35.743Z,982.98
2018-01-15T03:51:35.654Z,982.99
2018-01-15T03:52:35.569Z,983.03
2018-01-15T03:53:35.484Z,983.03
2018-01-15T03:54:35.396Z,983.03
2018-01-15T03:55:35.311Z,983.06
2018-01-15T03:56:35.229Z,983.05
2018-01-15T03:57:35.136Z,983.08
2018-01-15T03:58:35.052Z,983.00
2018-01-15T03:59:34.966Z,983.05
2018-01-15T04:00:34.877Z,983.05
2018-01-15T04:01:34.793Z,983.01
2018-01-15T04:02:34.711Z,983.03
2018-01-15T04:03:34.625Z,982.98
2018-01-15T04:04:34.535Z,982.97
2018-01-15T04:05:34.444Z,982.98
2018-01-15T04:06:34.360Z,982.97
2018-01-15T04:07:34.273Z,982.95
2018-01-15T04:08:34.184Z,982.92
2018-01-15T04:09:34.100Z,982.96
2018-01-15T04:10:34.018Z,982.87
2018-01-15T04:11:33.926Z,982.87
2018-01-15T04:12:33.841Z,982.92
2018-01-15T04:13:33.752Z,982.88
2018-01-15T04:14:33.666Z,982.86
2018-01-15T04:15:33.580Z,982.86
2018-01-15T04:16:33.492Z,982.85
2018-01-15T04:17:33.406Z,982.84
2018-01-15T04:18:33.324Z,982.85
2018-01-15T04:19:33.234Z,982.84
2018-01-15T04:20:33.149Z,982.84
2018-01-15T04:21:33.061Z,982.86
2018-01-15T04:22:32.980Z,982.88
2018-01-15T04:23:32.892Z,982.85
2018-01-15T04:24:32.801Z,982.87
2018-01-15T04:25:32.715Z,982.89
2018-01-15T04:26:32.630Z,982.84
2018-01-15T04:27:32.541Z,982.92
2018-01-15T04:28:32.460Z,982.95
2018-01-15T04:29:32.369Z,982.93
2018-01-15T04:30:32.283Z,982.94
2018-01-15T04:31:32.197Z,982.91
2018-01-15T04:32:32.110Z,982.94
2018-01-15T04:33:32.025Z,982.92
2018-01-15T04:34:31.938Z,982.89
2018-01-15T04:35:31.848Z,982.92
2018-01-15T04:36:31.764Z,982.90
2018-01-15T04:37:31.678Z,982.86
2018-01-15T04:38:31.592Z,982.85
2018-01-15T04:39:31.505Z,982.81
2018-01-15T04:40:31.416Z,982.82
2018-01-15T04:41:31.330Z,982.80
2018-01-15T04:42:31.247Z,982.80
2018-01-15T04:43:31.156Z,982.80
2018-01-15T04:44:31.072Z,982.85
2018-01-15T04:45:30.985Z,982.85
2018-01-15T04:46:30.897Z,982.84
2018-01-15T04:47:30.810Z,982.90
2018-01-15T04:48:30.730Z,982.87
2018-01-15T04:49:30.639Z,982.88
2018-01-15T04:50:30.550Z,982.89
2018-01-15T04:51:30.465Z,982.87
2018-01-15T04:52:30.379Z,982.87
2018-01-15T04:53:30.294Z,982.86
2018-01-15T04:54:30.209Z,982.85
2018-01-15T04:55:30.118Z,982.82
2018-01-15T04:56:30.032Z,982.75
2018-01-15T04:57:29.947Z,982.76
2018-01-15T04:58:29.863Z,982.72
2018-01-15T04:59:29.774Z,982.68
2018-01-15T05:00:29.694Z,982.70
2018-01-15T05:01:29.602Z,982.65
2018-01-15T05:02:29.512Z,982.63
2018-01-15T05:03:29.431Z,982.57
2018-01-15T05:04:29.342Z,982.58
2018-01-15T05:05:29.256Z,982.58
2018-01-15T05:06:29.169Z,982.57
2018-01-15T05:07:29.083Z,982.61
2018-01-15T05:08:29.000Z,982.61
2018-01-15T05:09:28.910Z,982.58
2018-01-15T05:10:28.825Z,982.60
2018-01-15T05:11:28.739Z,982.64
2018-01-15T05:12:28.649Z,982.62
2018-01-15T05:13:28.565Z,982.65
2018-01-15T05:14:28.477Z,982.64
2018-01-15T05:15:28.393Z,982.67
2018-01-15T05:16:28.306Z,982.67
2018-01-15T05:17:28.219Z,982.66
2018-01-15T05:18:28.138Z,982.63
2018-01-15T05:19:28.051Z,982.63
2018-01-15T05:20:27.960Z,982.61
2018-01-15T05:21:27.881Z,982.61
2018-01-15T05:22:27.788Z,982.62
2018-01-15T05:23:27.700Z,982.64
2018-01-15T05:24:27.618Z,982.68
2018-01-15T05:25:27.534Z,982.63
2018-01-15T05:26:27.442Z,982.64
2018-01-15T05:27:27.354Z,982.65
2018-01-15T05:28:27.270Z,982.65
2018-01-15T05:29:27.183Z,982.64
2018-01-15T05:30:27.098Z,982.65
2018-01-15T05:31:27.009Z,982.67
2018-01-15T05:32:26.926Z,982.64
2018-01-15T05:33:26.839Z,982.63
2018-01-15T05:34:26.752Z,982.62
2018-01-15T05:35:26.664Z,982.58
2018-01-15T05:36:26.578Z,982.57
2018-01-15T05:37:26.492Z,982.56
2018-01-15T05:38:26.406Z,982.53
2018-01-15T05:39:26.317Z,982.49
2018-01-15T05:40:26.232Z,982.53
2018-01-15T05:41:26.147Z,982.51
2018-01-15T05:42:26.063Z,982.53
2018-01-15T05:43:25.982Z,982.49
2018-01-15T05:44:25.887Z,982.49
2018-01-15T05:45:25.799Z,982.49
2018-01-15T05:46:25.714Z,982.55
2018-01-15T05:47:25.627Z,982.52
2018-01-15T05:48:25.541Z,982.54
2018-01-15T05:49:25.451Z,982.50
2018-01-15T05:50:25.372Z,982.54
2018-01-15T05:51:25.284Z,982.56
2018-01-15T05:52:25.196Z,982.56
2018-01-15T05:53:25.112Z,982.53
2018-01-15T05:54:25.020Z,982.52
2018-01-15T05:55:24.935Z,982.55
2018-01-15T05:56:24.857Z,982.54
2018-01-15T05:57:24.763Z,982.54
2018-01-15T05:58:24.676Z,982.56
2018-01-15T05:59:24.594Z,982.54
2018-01-15T06:00:24.504Z,982.55
2018-01-15T06:01:24.415Z,982.54
2018-01-15T06:02:24.330Z,982.53
2018-01-15T06:03:24.243Z,982.54
2018-01-15T06:04:24.158Z,982.55
2018-01-15T06:05:24.070Z,982.54
2018-01-15T06:06:23.983Z,982.52
2018-01-15T06:07:23.896Z,982.49
2018-01-15T06:08:23.812Z,982.50
2018-01-15T06:09:23.722Z,982.49
2018-01-15T06:10:23.638Z,982.51
2018-01-15T06:11:23.547Z,982.48
2018-01-15T06:12:23.463Z,982.47
2018-01-15T06:13:23.376Z,982.49
2018-01-15T06:14:23.295Z,982.50
2018-01-15T06:15:23.203Z,982.46
2018-01-15T06:16:23.122Z,982.49
2018-01-15T06:17:23.029Z,982.49
2018-01-15T06:18:22.941Z,982.49
2018-01-15T06:19:22.856Z,982.47
2018-01-15T06:20:22.769Z,982.46
2018-01-15T06:21:22.684Z,982.42
2018-01-15T06:22:22.597Z,982.44
2018-01-15T06:23:22.510Z,982.41
2018-01-15T06:24:22.420Z,982.39
2018-01-15T06:25:22.338Z,982.40
2018-01-15T06:26:22.250Z,982.39
2018-01-15T06:27:22.165Z,982.42
2018-01-15T06:28:22.077Z,982.40
2018-01-15T06:29:21.989Z,982.42
2018-01-15T06:30:21.920Z,982.40
2018-01-15T06:31:21.815Z,982.41
2018-01-15T06:32:21.729Z,982.41
2018-01-15T06:33:21.641Z,982.36
2018-01-15T06:34:21.556Z,982.40
2018-01-15T06:35:21.476Z,982.39
2018-01-15T06:36:21.380Z,982.39
2018-01-15T06:37:21.296Z,982.35
2018-01-15T06:38:21.211Z,982.39
2018-01-15T06:39:21.124Z,982.39
2018-01-15T06:40:21.037Z,982.39
2018-01-15T06:41:20.949Z,982.40
2018-01-15T06:42:20.862Z,982.43
2018-01-15T06:43:20.778Z,982.41
2018-01-15T06:44:20.687Z,982.45
2018-01-15T06:45:20.601Z,982.40
2018-01-15T06:46:20.516Z,982.41
2018-01-15T06:47:20.428Z,982.40
2018-01-15T06:48:20.342Z,982.39
2018-01-15T06:49:20.253Z,982.42
2018-01-15T06:50:20.166Z,982.43
2018-01-15T06:51:20.084Z,982.43
2018-01-15T06:52:19.994Z,982.41
2018-01-15T06:53:19.910Z,982.42
2018-01-15T06:54:19.822Z,982.42
2018-01-15T06:55:19.732Z,982.44
2018-01-15T06:56:19.647Z,982.46
2018-01-15T06:57:19.560Z,982.50
2018-01-15T06:58:19.474Z,982.53
2018-01-15T06:59:19.383Z,982.54
2018-01-15T07:00:19.299Z,982.52
2018-01-15T07:01:19.215Z,982.54
2018-01-15T07:02:19.127Z,982.53
2018-01-15T07:03:19.039Z,982.55
2018-01-15T07:04:18.957Z,982.52
2018-01-15T07:05:18.864Z,982.53
2018-01-15T07:06:18.782Z,982.57
2018-01-15T07:07:18.688Z,982.53
2018-01-15T07:08:18.604Z,982.55
2018-01-15T07:09:18.517Z,982.53
2018-01-15T07:10:18.436Z,982.56
2018-01-15T07:11:18.344Z,982.55
2018-01-15T07:12:18.257Z,982.55
2018-01-15T07:13:18.169Z,982.60
2018-01-15T07:14:18.083Z,982.52
2018-01-15T07:15:17.999Z,982.50
2018-01-15T07:16:17.911Z,982.51
2018-01-15T07:17:17.823Z,982.55
2018-01-15T07:18:17.737Z,982.52
2018-01-15T07:19:17.647Z,982.53
2018-01-15T07:20:17.564Z,982.51
2018-01-15T07:21:17.474Z,982.50
2018-01-15T07:22:17.388Z,982.53
2018-01-15T07:23:17.300Z,982.53
2018-01-15T07:24:17.213Z,982.52
2018-01-15T07:25:17.133Z,982.50
2018-01-15T07:26:17.040Z,982.52
2018-01-15T07:27:16.953Z,982.49
2018-01-15T07:28:16.866Z,982.52
2018-01-15T07:29:16.791Z,982.49
2018-01-15T07:30:16.693Z,982.49
2018-01-15T07:31:16.606Z,982.54
2018-01-15T07:32:16.518Z,982.50
2018-01-15T07:33:16.432Z,982.46
2018-01-15T07:34:16.343Z,982.49
2018-01-15T07:35:16.256Z,982.51
2018-01-15T07:36:16.169Z,982.56
2018-01-15T07:37:16.090Z,982.59
2018-01-15T07:38:15.999Z,982.58
2018-01-15T07:39:15.910Z,982.60
2018-01-15T07:40:15.824Z,982.58
2018-01-15T07:41:15.736Z,982.61
2018-01-15T07:42:15.649Z,982.58
2018-01-15T07:43:15.562Z,982.60
2018-01-15T07:44:15.478Z,982.59
2018-01-15T07:45:15.387Z,982.61
2018-01-15T07:46:15.304Z,982.61
2018-01-15T07:47:15.215Z,982.58
2018-01-15T07:48:15.131Z,982.60
2018-01-15T07:49:15.043Z,982.61
2018-01-15T07:50:14.956Z,982.58
2018-01-15T07:51:14.868Z,982.61
2018-01-15T07:52:14.783Z,982.59
2018-01-15T07:53:14.696Z,982.58
2018-01-15T07:54:14.608Z,982.56
2018-01-15T07:55:14.520Z,982.59
2018-01-15T07:56:14.435Z,982.57
2018-01-15T07:57:14.349Z,982.57
2018-01-15T07:58:14.263Z,982.55
2018-01-15T07:59:14.174Z,982.57
2018-01-15T08:00:14.087Z,982.56
2018-01-15T08:01:14.002Z,982.55
2018-01-15T08:02:13.915Z,982.58
2018-01-15T08:03:13.835Z,982.54
2018-01-15T08:04:13.746Z,982.53
2018-01-15T08:05:13.657Z,982.51
2018-01-15T08:06:13.570Z,982.49
2018-01-15T08:07:13.492Z,982.49
2018-01-15T08:08:13.395Z,982.44
2018-01-15T08:09:13.308Z,982.47
2018-01-15T08:10:13.223Z,982.49
2018-01-15T08:11:13.136Z,982.47
2018-01-15T08:12:13.049Z,982.51
2018-01-15T08:13:12.965Z,982.46
2018-01-15T08:14:12.880Z,982.45
2018-01-15T08:15:12.789Z,982.46
2018-01-15T08:16:12.705Z,982.45
2018-01-15T08:17:12.616Z,982.42
2018-01-15T08:18:12.532Z,982.43
2018-01-15T08:19:12.444Z,982.44
2018-01-15T08:20:12.381Z,982.41
2018-01-15T08:21:12.270Z,982.41
2018-01-15T08:22:12.188Z,982.41
2018-01-15T08:23:12.133Z,982.41
2018-01-15T08:24:12.057Z,982.42
2018-01-15T08:25:11.923Z,982.38
2018-01-15T08:26:11.839Z,982.41
2018-01-15T08:27:11.752Z,982.39
2018-01-15T08:28:11.665Z,982.38
2018-01-15T08:29:11.578Z,982.38
2018-01-15T08:30:11.499Z,982.37
2018-01-15T08:31:11.406Z,982.35
2018-01-15T08:32:11.318Z,982.37
2018-01-15T08:33:11.232Z,982.35
2018-01-15T08:34:11.145Z,982.37
2018-01-15T08:35:11.057Z,982.37
2018-01-15T08:36:10.973Z,982.36
2018-01-15T08:37:10.887Z,982.28
2018-01-15T08:38:10.799Z,982.35
2018-01-15T08:39:10.712Z,982.31
2018-01-15T08:40:10.626Z,982.29
2018-01-15T08:41:10.541Z,982.28
2018-01-15T08:42:10.455Z,982.26
2018-01-15T08:43:10.369Z,982.25
2018-01-15T08:44:10.282Z,982.33
2018-01-15T08:45:10.193Z,982.29
2018-01-15T08:46:10.108Z,982.30
2018-01-15T08:47:10.020Z,982.23
2018-01-15T08:48:09.934Z,982.28
2018-01-15T08:49:09.850Z,982.31
2018-01-15T08:50:09.762Z,982.30
2018-01-15T08:51:09.678Z,982.29
2018-01-15T08:52:09.590Z,982.26
2018-01-15T08:53:09.501Z,982.27
2018-01-15T08:54:09.416Z,982.28
2018-01-15T08:55:09.334Z,982.31
2018-01-15T08:56:09.241Z,982.22
2018-01-15T08:57:09.157Z,982.19
2018-01-15T08:58:09.071Z,982.26
2018-01-15T08:59:08.983Z,982.24
2018-01-15T09:00:08.895Z,982.26
2018-01-15T09:01:08.847Z,982.25
2018-01-15T09:02:08.722Z,982.30
2018-01-15T09:03:08.638Z,982.20
2018-01-15T09:04:08.549Z,982.22
2018-01-15T09:05:08.471Z,982.20
2018-01-15T09:06:08.378Z,982.23
2018-01-15T09:07:08.289Z,982.28
2018-01-15T09:08:08.202Z,982.24
2018-01-15T09:09:08.128Z,982.22
2018-01-15T09:10:08.031Z,982.20
2018-01-15T09:11:07.942Z,982.20
2018-01-15T09:12:07.857Z,982.18
2018-01-15T09:13:07.768Z,982.19
2018-01-15T09:14:07.685Z,982.14
2018-01-15T09:15:07.596Z,982.08
2018-01-15T09:16:07.510Z,982.09
2018-01-15T09:17:07.423Z,982.05
2018-01-15T09:18:07.351Z,982.08
2018-01-15T09:19:07.248Z,982.08
2018-01-15T09:20:07.165Z,982.04
2018-01-15T09:21:07.077Z,982.03
2018-01-15T09:22:06.993Z,981.98
2018-01-15T09:23:06.902Z,981.96
2018-01-15T09:24:06.821Z,981.99
2018-01-15T09:25:06.733Z,982.01
2018-01-15T09:26:06.644Z,982.04
2018-01-15T09:27:06.558Z,982.04
2018-01-15T09:28:06.484Z,982.08
2018-01-15T09:29:06.386Z,982.03
2018-01-15T09:30:06.300Z,982.01
2018-01-15T09:31:06.211Z,982.01
2018-01-15T09:32:06.123Z,981.94
2018-01-15T09:33:06.037Z,982.01
2018-01-15T09:34:05.957Z,981.98
2018-01-15T09:35:05.869Z,981.95
2018-01-15T09:36:05.779Z,981.99
2018-01-15T09:37:05.693Z,981.99
2018-01-15T09:38:05.604Z,981.96
2018-01-15T09:39:05.523Z,981.99
2018-01-15T09:40:05.435Z,982.03
2018-01-15T09:41:05.344Z,982.04
2018-01-15T09:42:05.261Z,982.01
2018-01-15T09:43:05.172Z,982.00
2018-01-15T09:44:05.089Z,982.01
2018-01-15T09:45:05.000Z,982.03
2018-01-15T09:46:04.913Z,981.97
2018-01-15T09:47:04.828Z,981.98
2018-01-15T09:48:04.743Z,982.00
2018-01-15T09:49:04.653Z,981.95
2018-01-15T09:50:04.568Z,981.92
2018-01-15T09:51:04.480Z,981.98
2018-01-15T09:52:04.396Z,981.93
2018-01-15T09:53:04.309Z,981.93
2018-01-15T09:54:04.223Z,981.95
2018-01-15T09:55:04.135Z,981.93
2018-01-15T09:56:04.050Z,981.95
2018-01-15T09:57:03.965Z,981.95
2018-01-15T09:58:03.879Z,981.96
2018-01-15T09:59:03.823Z,981.94
2018-01-15T10:00:03.704Z,981.88
2018-01-15T10:01:03.622Z,981.89
2018-01-15T10:02:03.533Z,981.87
2018-01-15T10:03:03.446Z,981.84
2018-01-15T10:04:03.362Z,981.87
2018-01-15T10:05:03.277Z,981.88
2018-01-15T10:06:03.189Z,981.87
2018-01-15T10:07:03.106Z,981.83
2018-01-15T10:08:03.018Z,981.78
2018-01-15T10:09:02.933Z,981.75
2018-01-15T10:10:02.846Z,981.71
2018-01-15T10:11:02.756Z,981.74
2018-01-15T10:12:02.670Z,981.66
2018-01-15T10:13:02.585Z,981.62
2018-01-15T10:14:02.500Z,981.63
2018-01-15T10:15:02.412Z,981.63
2018-01-15T10:16:02.324Z,981.65
2018-01-15T10:17:02.251Z,981.62
2018-01-15T10:18:02.154Z,981.67
2018-01-15T10:19:02.068Z,981.66
2018-01-15T10:20:01.996Z,981.68
2018-01-15T10:21:01.899Z,981.66
2018-01-15T10:22:01.808Z,981.59
2018-01-15T10:23:01.723Z,981.54
2018-01-15T10:24:01.637Z,981.50
2018-01-15T10:25:01.551Z,981.54
2018-01-15T10:26:01.464Z,981.54
2018-01-15T10:27:01.380Z,981.61
2018-01-15T10:28:01.292Z,981.54
2018-01-15T10:29:01.206Z,981.47
2018-01-15T10:30:01.121Z,981.44
2018-01-15T10:31:01.034Z,981.37
2018-01-15T10:32:00.949Z,981.41
2018-01-15T10:33:00.863Z,981.40
2018-01-15T10:34:00.827Z,981.39
2018-01-15T10:35:00.690Z,981.36
2018-01-15T10:36:00.604Z,981.37
2018-01-15T10:37:00.522Z,981.33
2018-01-15T10:38:00.431Z,981.32
2018-01-15T10:39:00.350Z,981.22
2018-01-15T10:40:00.262Z,981.17
2018-01-15T10:41:00.182Z,981.15
2018-01-15T10:42:00.090Z,981.14
2018-01-15T10:43:00.005Z,981.14
2018-01-15T10:43:59.917Z,981.12
2018-01-15T10:44:59.830Z,981.17
2018-01-15T10:45:59.745Z,981.04
2018-01-15T10:46:59.659Z,981.06
2018-01-15T10:47:59.585Z,981.03
2018-01-15T10:48:59.492Z,981.03
2018-01-15T10:49:59.411Z,981.01
2018-01-15T10:50:59.315Z,980.98
2018-01-15T10:51:59.229Z,980.90
2018-01-15T10:52:59.142Z,980.92
2018-01-15T10:53:59.058Z,980.90
2018-01-15T10:54:58.972Z,980.87
2018-01-15T10:55:58.885Z,980.88
2018-01-15T10:56:58.801Z,980.84
2018-01-15T10:57:58.714Z,980.86
2018-01-15T10:58:58.626Z,980.81
2018-01-15T10:59:58.549Z,980.76
2018-01-15T11:00:58.454Z,980.74
2018-01-15T11:01:58.370Z,980.73
2018-01-15T11:02:58.283Z,980.73
2018-01-15T11:03:58.198Z,980.69
2018-01-15T11:04:58.112Z,980.70
2018-01-15T11:05:58.024Z,980.67
2018-01-15T11:06:57.936Z,980.66
2018-01-15T11:07:57.853Z,980.69
2018-01-15T11:08:57.768Z,980.69
2018-01-15T11:09:57.682Z,980.69
2018-01-15T11:10:57.593Z,980.64
2018-01-15T11:11:57.511Z,980.62
2018-01-15T11:12:57.429Z,980.62
2018-01-15T11:13:57.337Z,980.61
2018-01-15T11:14:57.251Z,980.58
2018-01-15T11:15:57.168Z,980.55
2018-01-15T11:16:57.082Z,980.52
2018-01-15T11:17:56.991Z,980.48
2018-01-15T11:18:56.906Z,980.49
2018-01-15T11:19:56.820Z,980.46
2018-01-15T11:20:56.734Z,980.42
2018-01-15T11:21:56.649Z,980.43
2018-01-15T11:22:56.561Z,980.37
2018-01-15T11:23:56.477Z,980.37
2018-01-15T11:24:56.389Z,980.45
2018-01-15T11:25:56.304Z,980.43
2018-01-15T11:26:56.216Z,980.33
2018-01-15T11:27:56.132Z,980.30
2018-01-15T11:28:56.046Z,980.29
2018-01-15T11:29:55.960Z,980.28
2018-01-15T11:30:55.873Z,980.28
2018-01-15T11:31:55.789Z,980.16
2018-01-15T11:32:55.703Z,980.16
2018-01-15T11:33:55.616Z,980.08
2018-01-15T11:34:55.531Z,980.07
2018-01-15T11:35:55.445Z,980.09
2018-01-15T11:36:55.359Z,979.99
2018-01-15T11:37:55.271Z,980.07
2018-01-15T11:38:55.187Z,979.98
2018-01-15T11:39:55.099Z,979.99
2018-01-15T11:40:55.014Z,980.00
2018-01-15T11:41:54.926Z,979.97
2018-01-15T11:42:54.840Z,979.94
2018-01-15T11:43:54.753Z,979.92
2018-01-15T11:44:54.672Z,979.91
2018-01-15T11:45:54.588Z,979.89
2018-01-15T11:46:54.496Z,979.89
2018-01-15T11:47:54.411Z,979.90
2018-01-15T11:48:54.325Z,979.83
2018-01-15T11:49:54.238Z,979.84
2018-01-15T11:50:54.153Z,979.77
2018-01-15T11:51:54.065Z,979.79
2018-01-15T11:52:54.009Z,979.79
2018-01-15T11:53:53.895Z,979.76
2018-01-15T11:54:53.808Z,979.72
2018-01-15T11:55:53.721Z,979.72
2018-01-15T11:56:53.636Z,979.70
2018-01-15T11:57:53.550Z,979.73
2018-01-15T11:58:53.461Z,979.63
2018-01-15T11:59:53.377Z,979.54
2018-01-15T12:00:53.306Z,979.45
2018-01-15T12:01:53.204Z,979.46
2018-01-15T12:02:53.118Z,979.37
2018-01-15T12:03:53.033Z,979.36
2018-01-15T12:04:52.945Z,979.42
2018-01-15T12:05:52.863Z,979.45
2018-01-15T12:06:52.773Z,979.44
2018-01-15T12:07:52.688Z,979.39
2018-01-15T12:08:52.604Z,979.40
2018-01-15T12:09:52.515Z,979.41
2018-01-15T12:10:52.430Z,979.36
2018-01-15T12:11:52.361Z,979.38
2018-01-15T12:12:52.258Z,979.38
2018-01-15T12:13:52.171Z,979.36
2018-01-15T12:14:52.084Z,979.30
2018-01-15T12:15:52.000Z,979.28
2018-01-15T12:16:51.915Z,979.26
2018-01-15T12:17:51.829Z,979.26
2018-01-15T12:18:51.743Z,979.22
2018-01-15T12:19:51.656Z,979.19
2018-01-15T12:20:51.570Z,979.13
2018-01-15T12:21:51.484Z,979.11
2018-01-15T12:22:51.398Z,979.13
2018-01-15T12:23:51.312Z,979.06
2018-01-15T12:24:51.230Z,978.97
2018-01-15T12:25:51.142Z,978.91
2018-01-15T12:26:51.053Z,978.88
2018-01-15T12:27:50.971Z,978.86